Time;durP1;ratioP1;P1;durP2;ratioP2;P2;SDS_P1;SDS_P2;PMS_P1;PMS_P2;Temp;Humidity;BMP_temperature;BMP_pressure;BME280_temperature;BME280_humidity;BME280_pressure;Samples;Min_cycle;Max_cycle;Signal;HPM_P1;HPM_P2
2021/08/28 00:00:53;;;;;;;1999.90;999.90;;;15.10;99.90;;;;;;5059569;28;20191;-85
2021/08/28 00:03:29;;;;;;;1999.90;999.90;;;15.10;99.90;;;;;;5167400;22;20290;-84
2021/08/28 00:05:57;;;;;;;1999.90;999.90;;;15.10;99.90;;;;;;5082655;28;20194;-84
2021/08/28 00:08:54;;;;;;;1999.90;999.90;;;15.10;99.90;;;;;;5065051;28;20423;-84
2021/08/28 00:11:39;;;;;;;1999.90;999.90;;;15.10;99.90;;;;;;5043495;28;20411;-85
2021/08/28 00:14:18;;;;;;;1999.90;999.90;;;15.10;99.90;;;;;;5061802;28;20418;-85
2021/08/28 00:17:16;;;;;;;1999.90;999.90;;;15.10;99.90;;;;;;5045449;28;20802;-85
2021/08/28 00:20:21;;;;;;;1999.90;999.90;;;15.10;99.90;;;;;;4981933;28;20419;-85
2021/08/28 00:23:32;;;;;;;1999.90;999.90;;;15.00;99.90;;;;;;4959537;28;20435;-86
2021/08/28 00:25:58;;;;;;;1999.90;999.90;;;15.00;99.90;;;;;;5044306;28;20487;-85
2021/08/28 00:28:58;;;;;;;1999.90;999.90;;;15.00;99.90;;;;;;5061655;28;20826;-85
2021/08/28 00:31:31;;;;;;;1999.90;999.90;;;15.00;99.90;;;;;;5061712;28;20426;-84
2021/08/28 00:34:30;;;;;;;1999.90;999.90;;;15.00;99.90;;;;;;5043989;28;20399;-84
2021/08/28 00:36:59;;;;;;;1999.90;999.90;;;15.00;99.90;;;;;;5060376;28;20460;-86
2021/08/28 00:39:30;;;;;;;1999.90;999.90;;;15.10;99.90;;;;;;5061862;28;20440;-85
2021/08/28 00:42:10;;;;;;;1999.90;999.90;;;15.10;99.90;;;;;;5061806;28;20433;-85
2021/08/28 00:44:56;;;;;;;1999.90;999.90;;;15.10;99.90;;;;;;5042234;28;20430;-85
2021/08/28 00:48:05;;;;;;;1999.90;999.90;;;15.10;99.90;;;;;;5061371;28;20458;-85
2021/08/28 00:50:33;;;;;;;1999.90;999.90;;;15.10;99.90;;;;;;4981658;28;20411;-85
2021/08/28 00:53:01;;;;;;;1999.90;999.90;;;15.10;99.90;;;;;;4980166;28;20419;-85
2021/08/28 01:05:53;;;;;;;1999.90;999.90;;;15.20;99.90;;;;;;4923211;29;20421;-85
2021/08/28 01:08:29;;;;;;;1999.90;999.90;;;15.20;99.90;;;;;;4923218;29;20429;-85
2021/08/28 01:14:59;;;;;;;1999.90;999.90;;;15.20;99.90;;;;;;5020719;28;20440;-85
2021/08/28 01:18:01;;;;;;;;;;;;;;;;;;;;;
2021/08/28 01:21:23;;;;;;;1999.90;999.90;;;15.20;99.90;;;;;;5072321;28;20406;-85
2021/08/28 01:24:00;;;;;;;1999.90;999.90;;;15.20;99.90;;;;;;4987214;28;20820;-85
2021/08/28 01:27:19;;;;;;;1999.90;999.90;;;15.10;99.90;;;;;;5063737;28;20402;-85
2021/08/28 01:30:52;;;;;;;1999.90;999.90;;;15.10;99.90;;;;;;5066705;28;20774;-85
2021/08/28 01:46:47;;;;;;;1999.90;999.90;;;15.00;99.90;;;;;;5003439;28;20407;-85
2021/08/28 01:50:04;;;;;;;1999.90;999.90;;;15.10;99.90;;;;;;4984618;28;20411;-85
2021/08/28 01:53:25;;;;;;;1999.90;999.90;;;15.10;99.90;;;;;;5065895;28;20421;-85
2021/08/28 01:56:19;;;;;;;1999.90;999.90;;;15.10;99.90;;;;;;5071641;28;20414;-85
2021/08/28 01:59:05;;;;;;;1999.90;999.90;;;15.20;99.90;;;;;;5073401;28;20790;-85
2021/08/28 02:06:01;;;;;;;1999.90;999.90;;;15.20;99.90;;;;;;5082111;28;20422;-85
2021/08/28 02:09:08;;;;;;;1999.90;999.90;;;15.20;99.90;;;;;;5003052;28;20433;-85
2021/08/28 02:12:14;;;;;;;1999.90;999.90;;;15.20;99.90;;;;;;4991696;28;20421;-85
2021/08/28 02:15:05;;;;;;;1999.90;999.90;;;15.20;99.90;;;;;;5021958;28;20448;-85
2021/08/28 02:21:39;;;;;;;1999.90;999.90;;;15.20;99.90;;;;;;5001034;28;20446;-85
2021/08/28 02:24:59;;;;;;;1999.90;999.90;;;15.20;99.90;;;;;;4984785;28;21134;-85
2021/08/28 02:27:59;;;;;;;1999.90;999.90;;;15.20;99.90;;;;;;5034252;28;20480;-85
2021/08/28 02:30:59;;;;;;;1999.90;999.90;;;15.10;99.90;;;;;;5064135;28;20415;-85
2021/08/28 02:33:41;;;;;;;1999.90;999.90;;;15.20;99.90;;;;;;5006923;28;20421;-86
2021/08/28 02:36:45;;;;;;;1999.90;999.90;;;15.20;99.90;;;;;;5061353;28;20484;-85
2021/08/28 02:39:51;;;;;;;1999.90;999.90;;;15.10;99.90;;;;;;5061324;28;20441;-85
2021/08/28 02:46:10;;;;;;;1999.90;999.90;;;15.20;99.90;;;;;;4973214;28;20443;-85
2021/08/28 02:54:16;;;;;;;;;;;;;;;;;;;;;
2021/08/28 02:59:42;;;;;;;1999.90;999.90;;;15.20;99.90;;;;;;5059113;28;20490;-87
2021/08/28 03:06:52;;;;;;;;;;;;;;;;;;;;;
2021/08/28 03:10:14;;;;;;;1999.90;999.90;;;15.20;99.90;;;;;;4914314;29;20607;-87
2021/08/28 03:13:14;;;;;;;1999.90;999.90;;;15.10;99.90;;;;;;4926978;29;20968;-85
2021/08/28 03:19:56;;;;;;;1999.90;999.90;;;15.20;99.90;;;;;;4937776;29;20804;-85
2021/08/28 03:23:23;;;;;;;1999.90;999.90;;;15.10;99.90;;;;;;4938818;29;20409;-85
2021/08/28 03:30:01;;;;;;;1999.90;999.90;;;15.20;99.90;;;;;;4927080;29;20412;-85
2021/08/28 03:32:56;;;;;;;1999.90;999.90;;;15.20;99.90;;;;;;4936575;29;20417;-85
2021/08/28 03:35:57;;;;;;;1999.90;999.90;;;15.20;99.90;;;;;;4936519;29;20424;-85
2021/08/28 03:41:12;;;;;;;1999.90;999.90;;;15.10;99.90;;;;;;5094384;28;20465;-85
2021/08/28 03:44:43;;;;;;;1999.90;999.90;;;15.00;99.90;;;;;;5076369;28;20560;-85
2021/08/28 03:51:15;;;;;;;1999.90;999.90;;;15.00;99.90;;;;;;5075740;28;20497;-85
2021/08/28 03:57:28;;;;;;;1999.90;999.90;;;15.00;99.90;;;;;;5068535;28;20453;-85
2021/08/28 04:00:49;;;;;;;;;;;;;;;;;;;;;
2021/08/28 04:03:53;;;;;;;1999.90;999.90;;;15.00;99.90;;;;;;4993149;28;20902;-85
2021/08/28 04:07:15;;;;;;;1999.90;999.90;;;15.00;99.90;;;;;;4997978;28;20523;-85
2021/08/28 04:13:31;;;;;;;1999.90;999.90;;;15.10;99.90;;;;;;4937439;29;20968;-85
2021/08/28 04:16:51;;;;;;;1999.90;999.90;;;15.10;99.90;;;;;;4936718;29;20432;-85
2021/08/28 04:20:25;;;;;;;1999.90;999.90;;;15.10;99.90;;;;;;4925173;29;21003;-85
2021/08/28 04:23:19;;;;;;;1999.90;999.90;;;15.10;99.90;;;;;;4897659;29;20465;-85
2021/08/28 04:39:46;;;;;;;1999.90;999.90;;;15.10;99.90;;;;;;5127769;22;20481;-85
2021/08/28 04:42:52;;;;;;;1999.90;999.90;;;15.10;99.90;;;;;;5044418;28;20764;-85
2021/08/28 04:45:56;;;;;;;1999.90;999.90;;;15.10;99.90;;;;;;5074879;28;20409;-85
2021/08/28 04:55:55;;;;;;;1999.90;999.90;;;15.10;99.90;;;;;;4975961;28;20414;-85
2021/08/28 05:01:47;;;;;;;1999.90;999.90;;;15.10;99.90;;;;;;5015584;28;20405;-86
2021/08/28 05:04:57;;;;;;;;;;;;;;;;;;;;;
2021/08/28 05:07:56;;;;;;;1999.90;999.90;;;15.10;99.90;;;;;;4995723;28;20434;-86
2021/08/28 05:11:03;;;;;;;1999.90;999.90;;;15.10;99.90;;;;;;5001479;28;20796;-86
2021/08/28 05:13:30;;;;;;;1999.90;999.90;;;15.10;99.90;;;;;;4963329;28;20506;-85
2021/08/28 05:16:02;;;;;;;1999.90;999.90;;;15.10;99.90;;;;;;5063043;28;20490;-85
2021/08/28 05:18:46;;;;;;;1999.90;999.90;;;15.10;99.90;;;;;;5046925;28;20490;-85
2021/08/28 05:21:35;;;;;;;1999.90;999.90;;;15.10;99.90;;;;;;5064557;28;20395;-85
2021/08/28 05:24:10;;;;;;;1999.90;999.90;;;15.10;99.90;;;;;;4983715;28;20402;-85
2021/08/28 05:26:52;;;;;;;1999.90;999.90;;;15.10;99.90;;;;;;5062196;28;20434;-85
2021/08/28 05:29:52;;;;;;;1999.90;999.90;;;15.20;99.90;;;;;;5064248;28;20477;-85
2021/08/28 05:32:44;;;;;;;1999.90;999.90;;;15.30;99.90;;;;;;5063064;28;20437;-85
2021/08/28 05:35:15;;;;;;;1999.90;999.90;;;15.20;99.90;;;;;;5068633;28;20779;-85
2021/08/28 05:37:41;;;;;;;1999.90;999.90;;;15.20;99.90;;;;;;5069531;28;20454;-85
2021/08/28 05:40:08;;;;;;;1999.90;999.90;;;15.20;99.90;;;;;;5085968;28;20406;-84
2021/08/28 05:42:39;;;;;;;1999.90;999.90;;;15.20;99.90;;;;;;5085340;28;20526;-84
2021/08/28 05:45:05;;;;;;;1999.90;999.90;;;15.20;99.90;;;;;;5084755;28;20409;-84
2021/08/28 05:47:31;;;;;;;1999.90;999.90;;;15.20;99.90;;;;;;5067174;28;20436;-84
2021/08/28 05:49:59;;;;;;;1999.90;999.90;;;15.20;99.90;;;;;;5086845;28;20889;-84
2021/08/28 05:52:25;;;;;;;1999.90;999.90;;;15.30;99.90;;;;;;5086251;28;20398;-84
2021/08/28 05:54:56;;;;;;;1999.90;999.90;;;15.30;99.90;;;;;;5085658;28;20427;-84
2021/08/28 05:57:25;;;;;;;1999.90;999.90;;;15.40;99.90;;;;;;5085771;28;20207;-84
2021/08/28 05:59:59;;;;;;;1999.90;999.90;;;15.40;99.90;;;;;;5068742;28;20424;-84
2021/08/28 06:02:25;;;;;;;1999.90;999.90;;;15.40;99.90;;;;;;5158534;22;20490;-84
2021/08/28 06:05:07;;;;;;;1999.90;999.90;;;15.40;99.90;;;;;;5100500;28;20394;-85
2021/08/28 06:08:35;;;;;;;;;;;;;;;;;;;;;
2021/08/28 06:11:15;;;;;;;1999.90;999.90;;;15.50;99.90;;;;;;5051905;28;20471;-85
2021/08/28 06:13:56;;;;;;;1999.90;999.90;;;15.50;99.90;;;;;;5080261;28;20405;-85
2021/08/28 06:16:39;;;;;;;1999.90;999.90;;;15.50;99.90;;;;;;5081148;28;20442;-84
2021/08/28 06:19:05;;;;;;;1999.90;999.90;;;15.50;99.90;;;;;;5081479;28;20389;-83
2021/08/28 06:21:33;;;;;;;1999.90;999.90;;;15.50;99.90;;;;;;5081265;28;20398;-84
2021/08/28 06:24:07;;;;;;;1999.90;999.90;;;15.60;99.90;;;;;;5081286;28;20160;-85
2021/08/28 06:26:42;;;;;;;1999.90;999.90;;;15.60;99.90;;;;;;5081735;28;20459;-85
2021/08/28 06:29:19;;;;;;;1999.90;999.90;;;15.60;99.90;;;;;;5081443;28;20438;-85
2021/08/28 06:31:51;;;;;;;1999.90;999.90;;;15.70;99.90;;;;;;5081257;28;20846;-85
2021/08/28 06:34:16;;;;;;;1999.90;999.90;;;15.60;99.90;;;;;;5063161;28;20419;-84
2021/08/28 06:36:45;;;;;;;1999.90;999.90;;;15.60;99.90;;;;;;5062507;28;20453;-84
2021/08/28 06:39:23;;;;;;;1999.90;999.90;;;15.60;99.90;;;;;;5080675;28;20161;-84
2021/08/28 06:42:48;;;;;;;1999.90;999.90;;;15.60;99.90;;;;;;5080896;28;20428;-85
2021/08/28 06:45:14;;;;;;;1999.90;999.90;;;15.60;99.90;;;;;;4983296;28;20415;-82
2021/08/28 06:47:49;;;;;;;1999.90;999.90;;;15.50;99.90;;;;;;5076034;28;20472;-84
2021/08/28 06:50:14;;;;;;;1999.90;999.90;;;15.50;99.90;;;;;;5080864;28;20599;-84
2021/08/28 06:52:40;;;;;;;1999.90;999.90;;;15.50;99.90;;;;;;5080505;28;20452;-83
2021/08/28 06:55:06;;;;;;;1999.90;999.90;;;15.50;99.90;;;;;;5079162;28;20198;-83
2021/08/28 06:57:32;;;;;;;1999.90;999.90;;;15.50;99.90;;;;;;5080621;28;20701;-84
2021/08/28 06:59:58;;;;;;;1999.90;999.90;;;15.50;99.90;;;;;;5080426;28;20398;-84
2021/08/28 07:02:24;;;;;;;1999.90;999.90;;;15.50;99.90;;;;;;5080319;28;20631;-85
2021/08/28 07:04:50;;;;;;;1999.90;999.90;;;15.60;99.90;;;;;;5079707;28;20404;-84
2021/08/28 07:07:16;;;;;;;1999.90;999.90;;;15.70;99.90;;;;;;5062295;28;20189;-84
2021/08/28 07:09:41;;;;;;;1999.90;999.90;;;15.80;99.90;;;;;;5080765;28;20636;-83
2021/08/28 07:12:07;;;;;;;1999.90;999.90;;;15.80;99.90;;;;;;5080319;28;20168;-84
2021/08/28 07:14:33;;;;;;;1999.90;999.90;;;15.90;99.90;;;;;;5062046;28;20194;-83
2021/08/28 07:16:58;;;;;;;1999.90;999.90;;;16.10;99.90;;;;;;5079309;28;20542;-83
2021/08/28 07:19:24;;;;;;;1999.90;999.90;;;16.10;99.90;;;;;;5061994;28;20160;-83
2021/08/28 07:21:50;;;;;;;1999.90;999.90;;;16.20;99.90;;;;;;5078542;28;20171;-83
2021/08/28 07:24:15;;;;;;;1999.90;999.90;;;16.20;99.90;;;;;;5078500;28;20167;-84
2021/08/28 07:26:41;;;;;;;1999.90;999.90;;;16.20;99.90;;;;;;5061390;28;20178;-83
2021/08/28 07:29:07;;;;;;;1999.90;999.90;;;16.20;99.90;;;;;;5061428;28;20164;-83
2021/08/28 07:31:32;;;;;;;1999.90;999.90;;;16.20;99.90;;;;;;5061549;28;20178;-83
2021/08/28 07:33:58;;;;;;;1999.90;999.90;;;16.20;99.90;;;;;;5079702;28;20202;-83
2021/08/28 07:36:24;;;;;;;1999.90;999.90;;;16.20;99.90;;;;;;5079295;28;20283;-83
2021/08/28 07:38:49;;;;;;;1999.90;999.90;;;16.30;99.90;;;;;;5079354;28;20289;-82
2021/08/28 07:41:15;;;;;;;1999.90;999.90;;;16.30;99.90;;;;;;5079468;28;20169;-82
2021/08/28 07:43:41;;;;;;;1999.90;999.90;;;16.20;99.90;;;;;;5077582;28;20166;-83
2021/08/28 07:46:06;;;;;;;1999.90;999.90;;;16.20;99.90;;;;;;5061294;28;20166;-82
2021/08/28 07:48:32;;;;;;;1999.90;999.90;;;16.20;99.90;;;;;;5079083;28;20187;-82
2021/08/28 07:50:58;;;;;;;1999.90;999.90;;;16.20;99.90;;;;;;5062396;28;20160;-83
2021/08/28 07:53:23;;;;;;;1999.90;999.90;;;16.20;99.90;;;;;;5079311;28;20162;-84
2021/08/28 07:55:49;;;;;;;1999.90;999.90;;;16.20;99.90;;;;;;5061061;28;20723;-81
2021/08/28 07:58:17;;;;;;;1999.90;999.90;;;16.20;99.90;;;;;;5073925;28;20200;-83
2021/08/28 08:00:43;;;;;;;1999.90;999.90;;;16.30;99.90;;;;;;5074854;28;20165;-81
2021/08/28 08:03:09;;;;;;;1999.90;999.90;;;16.30;99.90;;;;;;5056807;28;20427;-81
2021/08/28 08:05:34;;;;;;;1999.90;999.90;;;16.30;99.90;;;;;;5074560;28;20162;-80
2021/08/28 08:08:00;;;;;;;1999.90;999.90;;;16.40;99.90;;;;;;5074821;28;20185;-82
2021/08/28 08:10:26;;;;;;;1999.90;999.90;;;16.50;99.90;;;;;;5075170;28;20165;-80
2021/08/28 08:12:52;;;;;;;1999.90;999.90;;;16.60;99.90;;;;;;5057063;28;20674;-80
2021/08/28 08:15:18;;;;;;;1999.90;999.90;;;16.70;99.90;;;;;;5075014;28;20590;-81
2021/08/28 08:17:44;;;;;;;1999.90;999.90;;;16.70;99.90;;;;;;5056773;28;20534;-80
2021/08/28 08:20:10;;;;;;;1999.90;999.90;;;16.80;99.90;;;;;;5061177;28;20161;-81
2021/08/28 08:22:35;;;;;;;1999.90;999.90;;;17.00;99.90;;;;;;5083629;28;20181;-82
2021/08/28 08:25:01;;;;;;;1999.90;999.90;;;17.00;99.90;;;;;;5078734;28;20406;-83
2021/08/28 08:27:27;;;;;;;1999.90;999.90;;;17.00;99.90;;;;;;5078601;28;20658;-82
2021/08/28 08:29:55;;;;;;;1999.90;999.90;;;17.10;99.90;;;;;;5078813;28;20176;-82
2021/08/28 08:32:21;;;;;;;1999.90;999.90;;;17.10;99.90;;;;;;5079002;28;20185;-83
2021/08/28 08:34:46;;;;;;;1999.90;999.90;;;17.10;99.90;;;;;;5079603;28;20413;-83
2021/08/28 08:37:12;;;;;;;1999.90;999.90;;;17.00;99.90;;;;;;5078048;28;20213;-83
2021/08/28 08:39:38;;;;;;;1999.90;999.90;;;17.00;99.90;;;;;;5077758;28;20217;-83
2021/08/28 08:42:07;;;;;;;1999.90;999.90;;;17.00;99.90;;;;;;5076877;28;20171;-83
2021/08/28 08:44:33;;;;;;;1999.90;999.90;;;17.00;99.90;;;;;;5078441;28;20156;-83
2021/08/28 08:46:59;;;;;;;1999.90;999.90;;;17.00;99.90;;;;;;5076864;28;20989;-82
2021/08/28 08:49:25;;;;;;;1999.90;999.90;;;17.10;99.90;;;;;;5076486;28;20862;-83
2021/08/28 08:51:52;;;;;;;1999.90;999.90;;;17.00;99.90;;;;;;5060267;28;20436;-82
2021/08/28 08:54:20;;;;;;;1999.90;999.90;;;17.00;99.90;;;;;;5077799;28;20405;-83
2021/08/28 08:56:46;;;;;;;1999.90;999.90;;;17.10;99.90;;;;;;5077502;28;20536;-82
2021/08/28 08:59:12;;;;;;;1999.90;999.90;;;17.10;99.90;;;;;;5060179;28;20829;-83
2021/08/28 09:01:38;;;;;;;1999.90;999.90;;;17.20;99.90;;;;;;5077339;28;20920;-82
2021/08/28 09:04:04;;;;;;;1999.90;999.90;;;17.40;99.90;;;;;;5077675;28;20399;-83
2021/08/28 09:06:29;;;;;;;1999.90;999.90;;;17.60;99.90;;;;;;5077710;28;20174;-83
2021/08/28 09:08:55;;;;;;;1999.90;999.90;;;17.70;99.90;;;;;;5060113;28;20163;-83
2021/08/28 09:11:24;;;;;;;1999.90;999.90;;;17.80;99.90;;;;;;5075923;28;20179;-83
2021/08/28 09:13:51;;;;;;;1999.90;999.90;;;17.70;99.90;;;;;;5059506;28;20203;-83
2021/08/28 09:16:31;;;;;;;1999.90;999.90;;;17.70;99.90;;;;;;5077632;28;20480;-83
2021/08/28 09:18:56;;;;;;;1999.90;999.90;;;17.60;99.90;;;;;;5060096;28;20413;-83
2021/08/28 09:21:30;;;;;;;1999.90;999.90;;;17.70;99.90;;;;;;5078782;28;20894;-83
2021/08/28 09:24:04;;;;;;;1999.90;999.90;;;17.70;99.90;;;;;;5077966;28;20754;-83
2021/08/28 09:26:40;;;;;;;1999.90;999.90;;;17.70;99.90;;;;;;5077734;28;20398;-83
2021/08/28 09:29:08;;;;;;;1999.90;999.90;;;17.70;99.90;;;;;;5078468;28;20415;-84
2021/08/28 09:31:48;;;;;;;1999.90;999.90;;;17.70;99.90;;;;;;5077961;28;20426;-84
2021/08/28 09:34:16;;;;;;;1999.90;999.90;;;17.70;99.90;;;;;;5078466;28;20788;-85
2021/08/28 09:36:42;;;;;;;1999.90;999.90;;;17.60;99.90;;;;;;5078165;28;20438;-85
2021/08/28 09:39:08;;;;;;;1999.90;999.90;;;17.50;99.90;;;;;;5078877;28;20417;-84
2021/08/28 09:41:34;;;;;;;1999.90;999.90;;;17.40;99.90;;;;;;5081497;28;20542;-84
2021/08/28 09:44:10;;;;;;;1999.90;999.90;;;17.40;99.90;;;;;;5081980;28;20411;-84
2021/08/28 09:46:38;;;;;;;1999.90;999.90;;;17.50;99.90;;;;;;5082637;28;20447;-84
2021/08/28 09:49:05;;;;;;;1999.90;999.90;;;17.70;99.90;;;;;;5082173;28;20406;-84
2021/08/28 09:51:36;;;;;;;1999.90;999.90;;;17.80;99.90;;;;;;5081992;28;20437;-84
2021/08/28 09:54:02;;;;;;;1999.90;999.90;;;17.80;99.90;;;;;;5081689;28;20413;-84
2021/08/28 09:56:28;;;;;;;1999.90;999.90;;;18.00;99.90;;;;;;5064017;28;20881;-84
2021/08/28 09:58:53;;;;;;;1999.90;999.90;;;18.00;99.90;;;;;;5081797;28;20412;-84
2021/08/28 10:01:23;;;;;;;1999.90;999.90;;;18.00;99.90;;;;;;5082191;28;20172;-84
2021/08/28 10:03:58;;;;;;;1999.90;999.90;;;18.10;99.90;;;;;;5082189;28;20168;-84
2021/08/28 10:06:28;;;;;;;1999.90;999.90;;;18.30;99.90;;;;;;5082207;28;20904;-84
2021/08/28 10:08:55;;;;;;;1999.90;999.90;;;18.40;99.90;;;;;;5063798;28;20441;-84
2021/08/28 10:11:20;;;;;;;1999.90;999.90;;;18.60;99.90;;;;;;5082792;28;20406;-85
2021/08/28 10:13:48;;;;;;;1999.90;999.90;;;18.60;99.90;;;;;;5082449;28;20792;-84
2021/08/28 10:16:15;;;;;;;1999.90;999.90;;;18.80;99.90;;;;;;5082574;28;20906;-85
2021/08/28 10:18:44;;;;;;;1999.90;999.90;;;18.90;99.90;;;;;;5063663;28;20426;-85
2021/08/28 10:21:11;;;;;;;1999.90;999.90;;;18.90;99.90;;;;;;5081716;28;20390;-85
2021/08/28 10:23:37;;;;;;;1999.90;999.90;;;19.00;99.90;;;;;;5081356;28;20449;-86
2021/08/28 10:26:07;;;;;;;1999.90;999.90;;;19.10;99.90;;;;;;5080864;28;20524;-85
2021/08/28 10:28:33;;;;;;;1999.90;999.90;;;19.20;99.90;;;;;;5082413;28;20929;-85
2021/08/28 10:30:59;;;;;;;1999.90;999.90;;;19.30;99.90;;;;;;5081273;28;20390;-85
2021/08/28 10:33:25;;;;;;;1999.90;999.90;;;19.50;99.90;;;;;;5081393;28;20194;-85
2021/08/28 10:35:51;;;;;;;1999.90;999.90;;;19.60;99.90;;;;;;5081230;28;20163;-85
2021/08/28 10:38:18;;;;;;;1999.90;999.90;;;19.60;99.90;;;;;;5063102;28;20548;-84
2021/08/28 10:40:45;;;;;;;1999.90;999.90;;;19.60;99.90;;;;;;5080091;28;20398;-85
2021/08/28 10:43:11;;;;;;;1999.90;999.90;;;19.60;99.90;;;;;;5082610;28;20773;-85
2021/08/28 10:45:39;;;;;;;1999.90;999.90;;;19.60;99.90;;;;;;5063969;28;20399;-84
2021/08/28 10:48:07;;;;;;;1999.90;999.90;;;19.50;99.90;;;;;;5064135;28;20856;-85
2021/08/28 10:50:40;;;;;;;1999.90;999.90;;;19.40;99.90;;;;;;5081210;28;20398;-85
2021/08/28 10:53:08;;;;;;;1999.90;999.90;;;19.10;99.90;;;;;;5081976;28;20456;-85
2021/08/28 10:55:44;;;;;;;1999.90;999.90;;;19.10;99.90;;;;;;5063785;28;20808;-85
2021/08/28 10:58:19;;;;;;;1999.90;999.90;;;19.00;99.90;;;;;;5062578;28;20462;-85
2021/08/28 11:00:47;;;;;;;1999.90;999.90;;;19.00;99.90;;;;;;5062987;28;20402;-85
2021/08/28 11:03:39;;;;;;;1999.90;999.90;;;19.10;99.90;;;;;;5080420;28;20925;-85
2021/08/28 11:06:17;;;;;;;1999.90;999.90;;;19.30;99.90;;;;;;5077648;28;20490;-84
2021/08/28 11:08:55;;;;;;;1999.90;999.90;;;19.30;99.90;;;;;;5081439;28;20928;-85
2021/08/28 11:11:41;;;;;;;1999.90;999.90;;;19.50;99.90;;;;;;5081026;28;20477;-85
2021/08/28 11:14:09;;;;;;;1999.90;999.90;;;19.70;99.90;;;;;;5063401;28;20402;-84
2021/08/28 11:16:44;;;;;;;1999.90;999.90;;;19.80;99.90;;;;;;5081776;28;20468;-85
2021/08/28 11:19:11;;;;;;;1999.90;999.90;;;20.00;99.90;;;;;;5063934;28;20432;-84
2021/08/28 11:21:42;;;;;;;1999.90;999.90;;;20.20;99.90;;;;;;5063892;28;20464;-84
2021/08/28 11:24:22;;;;;;;1999.90;999.90;;;20.40;99.90;;;;;;5081282;28;20395;-84
2021/08/28 11:26:49;;;;;;;1999.90;999.90;;;20.40;99.90;;;;;;5062446;28;20413;-85
2021/08/28 11:29:18;;;;;;;1999.90;999.90;;;20.50;99.90;;;;;;5081116;28;20812;-84
2021/08/28 11:31:46;;;;;;;1999.90;999.90;;;20.40;99.90;;;;;;5062395;28;20437;-85
2021/08/28 11:34:12;;;;;;;1999.90;999.90;;;20.30;99.90;;;;;;5079827;28;20496;-84
2021/08/28 11:36:37;;;;;;;1999.90;999.90;;;20.10;99.90;;;;;;5079902;28;20514;-84
2021/08/28 11:39:21;;;;;;;1999.90;999.90;;;20.10;99.90;;;;;;5062435;28;20407;-84
2021/08/28 11:41:47;;;;;;;1999.90;999.90;;;20.10;99.90;;;;;;5062206;28;20160;-84
2021/08/28 11:44:13;;;;;;;1999.90;999.90;;;20.00;99.90;;;;;;5062707;28;20402;-84
2021/08/28 11:46:41;;;;;;;1999.90;999.90;;;20.10;99.90;;;;;;5080630;28;20455;-84
2021/08/28 11:49:07;;;;;;;1999.90;999.90;;;20.10;99.90;;;;;;5062951;28;20432;-84
2021/08/28 11:51:34;;;;;;;1999.90;999.90;;;20.00;99.90;;;;;;5080430;28;20394;-84
2021/08/28 11:53:59;;;;;;;1999.90;999.90;;;20.00;99.90;;;;;;5079704;28;20459;-85
2021/08/28 11:56:32;;;;;;;1999.90;999.90;;;19.90;99.90;;;;;;5080615;28;20434;-84
2021/08/28 11:59:02;;;;;;;1999.90;999.90;;;19.70;99.90;;;;;;5079729;28;20160;-85
2021/08/28 12:04:05;;;;;;;1999.90;999.90;;;19.60;99.90;;;;;;5052166;28;20524;-79
2021/08/28 12:06:32;;;;;;;1999.90;999.90;;;19.70;99.90;;;;;;5055703;28;20874;-79
2021/08/28 12:08:59;;;;;;;1999.90;999.90;;;19.80;99.90;;;;;;5074940;28;20395;-79
2021/08/28 12:11:26;;;;;;;1999.90;999.90;;;20.00;99.90;;;;;;5057200;28;20897;-79
2021/08/28 12:14:00;;;;;;;1999.90;999.90;;;20.20;99.90;;;;;;5057245;28;20405;-79
2021/08/28 12:16:29;;;;;;;1999.90;999.90;;;20.30;99.90;;;;;;5075249;28;20426;-79
2021/08/28 12:19:18;;;;;;;1999.90;999.90;;;20.30;99.90;;;;;;5074554;28;20425;-79
2021/08/28 12:21:47;;;;;;;1999.90;999.90;;;20.30;99.90;;;;;;5075587;28;20412;-79
2021/08/28 12:24:22;;;;;;;1999.90;999.90;;;20.30;99.90;;;;;;5075052;28;20481;-79
2021/08/28 12:26:56;;;;;;;1999.90;999.90;;;20.60;99.90;;;;;;5056522;28;20406;-79
2021/08/28 12:29:27;;;;;;;1999.90;999.90;;;20.80;99.90;;;;;;5075167;28;20536;-79
2021/08/28 12:32:00;;;;;;;1999.90;999.90;;;21.10;99.90;;;;;;5074499;28;20393;-79
2021/08/28 12:34:30;;;;;;;1999.90;999.90;;;21.40;99.90;;;;;;5056618;28;20924;-78
2021/08/28 12:36:56;;;;;;;1999.90;999.90;;;21.50;99.90;;;;;;5074164;28;20453;-79
2021/08/28 12:39:22;;;;;;;1999.90;999.90;;;21.60;99.90;;;;;;5074531;28;20400;-79
2021/08/28 12:41:47;;;;;;;1999.90;999.90;;;21.60;99.90;;;;;;5074226;28;20915;-79
2021/08/28 12:44:15;;;;;;;1999.90;999.90;;;21.50;99.90;;;;;;5074722;28;20166;-79
2021/08/28 12:46:46;;;;;;;1999.90;999.90;;;21.30;99.90;;;;;;5074370;28;20405;-78
2021/08/28 12:49:20;;;;;;;1999.90;999.90;;;21.30;99.90;;;;;;5074671;28;20380;-78
2021/08/28 12:51:55;;;;;;;1999.90;999.90;;;21.30;99.90;;;;;;5074952;28;20386;-78
2021/08/28 12:54:47;;;;;;;1999.90;999.90;;;21.20;99.90;;;;;;5074445;28;20418;-79
2021/08/28 12:57:26;;;;;;;1999.90;999.90;;;21.00;99.90;;;;;;5063128;28;20456;-79
2021/08/28 12:59:55;;;;;;;1999.90;999.90;;;20.80;99.90;;;;;;5056060;28;20417;-79
2021/08/28 13:02:23;;;;;;;1999.90;999.90;;;20.60;99.90;;;;;;5073863;28;20527;-79
2021/08/28 13:04:50;;;;;;;1999.90;999.90;;;20.60;99.90;;;;;;5073916;28;20453;-79
2021/08/28 13:07:21;;;;;;;1999.90;999.90;;;20.40;99.90;;;;;;5073857;28;20430;-79
2021/08/28 13:10:07;;;;;;;1999.90;999.90;;;20.30;99.90;;;;;;5056118;28;20462;-78
2021/08/28 13:12:38;;;;;;;1999.90;999.90;;;20.40;99.90;;;;;;5045552;28;20407;-78
2021/08/28 13:15:06;;;;;;;1999.90;999.90;;;20.50;99.90;;;;;;5058528;28;20850;-78
2021/08/28 13:17:31;;;;;;;1999.90;999.90;;;20.80;99.90;;;;;;5059708;28;20532;-78
2021/08/28 13:20:12;;;;;;;1999.90;999.90;;;21.20;99.90;;;;;;5059958;28;20515;-78
2021/08/28 13:22:48;;;;;;;1999.90;999.90;;;21.40;99.90;;;;;;5078061;28;20136;-78
2021/08/28 13:25:20;;;;;;;1999.90;999.90;;;21.40;99.90;;;;;;5059591;28;20425;-78
2021/08/28 13:27:46;;;;;;;1999.90;999.90;;;21.20;99.90;;;;;;5059534;28;20802;-78
2021/08/28 13:30:20;;;;;;;1999.90;999.90;;;21.20;99.90;;;;;;5077288;28;20908;-78
2021/08/28 13:33:03;;;;;;;1999.90;999.90;;;21.00;99.90;;;;;;5077744;28;20382;-78
2021/08/28 13:35:39;;;;;;;1999.90;999.90;;;20.70;99.90;;;;;;5077764;28;20516;-79
2021/08/28 13:38:07;;;;;;;1999.90;999.90;;;20.40;99.90;;;;;;5077686;28;20481;-78
2021/08/28 13:40:33;;;;;;;1999.90;999.90;;;20.30;99.90;;;;;;5080463;28;20398;-79
2021/08/28 13:42:59;;;;;;;1999.90;999.90;;;20.00;99.90;;;;;;5060425;28;20417;-79
2021/08/28 13:45:25;;;;;;;1999.90;999.90;;;19.80;99.90;;;;;;5078033;28;20402;-78
2021/08/28 13:47:52;;;;;;;1999.90;999.90;;;19.50;99.90;;;;;;5077444;28;20187;-78
2021/08/28 13:50:18;;;;;;;1999.90;999.90;;;19.30;99.90;;;;;;5078054;28;20444;-77
2021/08/28 13:52:44;;;;;;;1999.90;999.90;;;19.00;99.90;;;;;;5077307;28;20402;-77
2021/08/28 13:55:10;;;;;;;1999.90;999.90;;;18.90;99.90;;;;;;5077379;28;20486;-77
2021/08/28 13:57:36;;;;;;;1999.90;999.90;;;18.60;99.90;;;;;;5058864;28;20899;-77
2021/08/28 14:00:04;;;;;;;1999.90;999.90;;;18.70;99.90;;;;;;5077104;28;20402;-77
2021/08/28 14:02:30;;;;;;;1999.90;999.90;;;18.70;99.90;;;;;;5077512;28;20190;-78
2021/08/28 14:04:55;;;;;;;1999.90;999.90;;;18.80;99.90;;;;;;5077887;28;20398;-77
2021/08/28 14:07:21;;;;;;;1999.90;999.90;;;18.90;99.90;;;;;;5077832;28;20693;-78
2021/08/28 14:09:46;;;;;;;1999.90;999.90;;;19.10;99.90;;;;;;5077714;28;20171;-78
2021/08/28 14:12:12;;;;;;;1999.90;999.90;;;19.20;99.90;;;;;;5078001;28;20168;-78
2021/08/28 14:14:38;;;;;;;1999.90;999.90;;;19.20;99.90;;;;;;5059628;28;20212;-78
2021/08/28 14:17:04;;;;;;;1999.90;999.90;;;19.10;99.90;;;;;;5078568;28;20207;-78
2021/08/28 14:19:30;;;;;;;1999.90;999.90;;;19.00;99.90;;;;;;5078299;28;20188;-78
2021/08/28 14:21:57;;;;;;;1999.90;999.90;;;18.90;99.90;;;;;;5060697;28;20765;-78
2021/08/28 14:24:23;;;;;;;1999.90;999.90;;;18.70;99.90;;;;;;5059514;28;20168;-79
2021/08/28 14:26:49;;;;;;;1999.90;999.90;;;18.40;99.90;;;;;;5077088;28;20422;-79
2021/08/28 14:29:15;;;;;;;1999.90;999.90;;;18.10;99.90;;;;;;5077720;28;20432;-78